Time;durP1;ratioP1;P1;durP2;ratioP2;P2;SDS_P1;SDS_P2;PMS_P1;PMS_P2;Temp;Humidity;BMP_temperature;BMP_pressure;BME280_temperature;BME280_humidity;BME280_pressure;Samples;Min_cycle;Max_cycle;Signal;HPM_P1;HPM_P2
2023/08/31 00:02:21;;;;;;;2.40;1.23;;;;;;;8.99;75.97;95294.69;6162647;28;20482;-68
2023/08/31 00:05:28;;;;;;;1.63;1.02;;;;;;;9.02;76.23;95296.22;6163131;28;20055;-68
2023/08/31 00:08:29;;;;;;;3.17;1.10;;;;;;;9.02;76.81;95299.66;6164110;28;20121;-68
2023/08/31 00:11:36;;;;;;;1.35;1.00;;;;;;;8.91;76.98;95290.06;6162922;28;20038;-68
2023/08/31 00:14:43;;;;;;;1.45;0.90;;;;;;;8.90;77.31;95283.16;6161442;28;20051;-68
2023/08/31 00:17:51;;;;;;;1.00;0.90;;;;;;;8.88;77.93;95287.72;6168623;28;20047;-67
2023/08/31 00:20:58;;;;;;;2.72;1.17;;;;;;;8.84;78.03;95283.69;6167053;28;20418;-67
2023/08/31 00:23:59;;;;;;;1.15;0.90;;;;;;;8.83;78.36;95279.41;6169576;28;20054;-67
2023/08/31 00:27:01;;;;;;;1.25;0.90;;;;;;;8.85;78.59;95274.84;6165938;28;20051;-67
2023/08/31 00:30:07;;;;;;;0.70;0.70;;;;;;;8.84;79.05;95277.63;6168783;28;20430;-67
2023/08/31 00:33:09;;;;;;;0.70;0.70;;;;;;;8.89;79.12;95271.03;6165213;28;20534;-67
2023/08/31 00:36:10;;;;;;;0.90;0.70;;;;;;;8.87;79.59;95278.19;6164996;28;20411;-66
2023/08/31 00:39:11;;;;;;;0.77;0.63;;;;;;;8.83;80.08;95276.78;6165739;28;20047;-67
2023/08/31 00:42:14;;;;;;;2.92;0.80;;;;;;;8.88;80.24;95274.59;6166146;28;20430;-67
2023/08/31 00:45:19;;;;;;;2.03;0.70;;;;;;;8.87;80.57;95280.81;6165008;28;20433;-67
2023/08/31 00:48:23;;;;;;;0.80;0.80;;;;;;;8.91;80.63;95274.34;6168642;28;20432;-66
2023/08/31 00:51:30;;;;;;;1.77;1.02;;;;;;;8.97;80.59;95273.84;6182354;28;20418;-66
2023/08/31 00:54:42;;;;;;;1.00;0.90;;;;;;;8.98;81.05;95274.66;6163435;28;20059;-66
2023/08/31 00:57:44;;;;;;;4.60;0.70;;;;;;;8.96;81.62;95272.16;6169013;28;20494;-66
2023/08/31 01:01:07;;;;;;;1.00;0.57;;;;;;;8.99;81.67;95266.66;6164365;28;20059;-67
2023/08/31 01:04:17;;;;;;;0.75;0.55;;;;;;;9.05;81.65;95269.72;6167088;28;20062;-67
2023/08/31 01:08:02;;;;;;;1.10;0.80;;;;;;;9.07;81.87;95271.25;6167785;28;20050;-67
2023/08/31 01:11:17;;;;;;;1.02;0.60;;;;;;;9.10;81.96;95272.81;6158233;28;20051;-66
2023/08/31 01:14:31;;;;;;;1.73;0.70;;;;;;;9.11;81.94;95264.78;6161637;28;20047;-66
2023/08/31 01:17:44;;;;;;;2.50;1.45;;;;;;;9.19;82.03;95257.09;6167778;28;20059;-67
2023/08/31 01:20:57;;;;;;;3.08;1.80;;;;;;;9.15;82.41;95260.13;6162445;28;20054;-66
2023/08/31 01:24:01;;;;;;;0.77;0.77;;;;;;;9.13;82.60;95256.78;6161419;28;20054;-66
2023/08/31 01:27:07;;;;;;;0.70;0.70;;;;;;;9.20;82.46;95252.69;6165366;28;20537;-66
2023/08/31 01:30:09;;;;;;;0.57;0.50;;;;;;;9.23;82.73;95241.94;6165554;28;20055;-66
2023/08/31 01:33:12;;;;;;;;;;;;;;;9.28;82.47;95246.78;6167351;28;20051;-67
2023/08/31 01:36:23;;;;;;;0.30;0.30;;;;;;;9.32;82.72;95251.66;6169414;28;20438;-67
2023/08/31 01:39:41;;;;;;;0.60;0.30;;;;;;;9.29;83.00;95236.16;6164484;28;20054;-66
2023/08/31 01:42:44;;;;;;;0.32;0.30;;;;;;;9.39;82.89;95254.56;6162104;28;20058;-67
2023/08/31 01:45:47;;;;;;;1.33;0.82;;;;;;;9.43;83.22;95233.19;6163739;28;20135;-66
2023/08/31 01:48:49;;;;;;;0.60;0.50;;;;;;;9.56;83.29;95237.34;6166644;28;20050;-66
2023/08/31 01:51:50;;;;;;;0.57;0.40;;;;;;;9.62;82.87;95234.19;6168170;28;20061;-67
2023/08/31 01:54:54;;;;;;;2.72;1.77;;;;;;;9.66;82.83;95232.97;6162963;28;20531;-66
2023/08/31 01:57:58;;;;;;;4.50;2.97;;;;;;;9.71;82.85;95236.03;6161924;28;20046;-66
2023/08/31 02:01:05;;;;;;;3.58;2.08;;;;;;;9.75;82.66;95236.59;6164182;28;20498;-67
2023/08/31 02:04:09;;;;;;;0.55;0.32;;;;;;;9.71;82.63;95245.69;6162290;28;20039;-67
2023/08/31 02:07:13;;;;;;;0.47;0.30;;;;;;;9.73;82.36;95255.09;6168100;28;20515;-68
2023/08/31 02:10:15;;;;;;;0.77;0.40;;;;;;;9.73;82.27;95241.97;6169137;28;20058;-68
2023/08/31 02:13:41;;;;;;;0.95;0.30;;;;;;;9.84;81.88;95255.00;6166048;28;20038;-68
2023/08/31 02:16:45;;;;;;;0.35;0.30;;;;;;;9.95;81.54;95250.59;6164160;28;20054;-68
2023/08/31 02:19:47;;;;;;;0.57;0.30;;;;;;;9.97;81.03;95253.94;6163636;28;20463;-68
2023/08/31 02:22:49;;;;;;;9.23;5.18;;;;;;;10.07;80.76;95262.63;6167245;28;20534;-68
2023/08/31 02:25:53;;;;;;;2.00;1.33;;;;;;;10.11;80.56;95264.88;6167153;28;20125;-68
2023/08/31 02:28:54;;;;;;;0.80;0.57;;;;;;;10.20;80.39;95265.84;6162429;28;20729;-68
2023/08/31 02:32:06;;;;;;;1.10;0.60;;;;;;;10.27;79.60;95274.88;6163588;28;20073;-68
2023/08/31 02:35:12;;;;;;;0.40;0.40;;;;;;;10.22;79.72;95256.03;6169062;28;20077;-68
2023/08/31 02:38:16;;;;;;;0.30;0.25;;;;;;;10.24;79.52;95256.72;6163793;28;20051;-68
2023/08/31 02:41:20;;;;;;;0.63;0.13;;;;;;;10.37;79.15;95258.28;6156743;28;20039;-67
2023/08/31 02:44:26;;;;;;;0.20;0.20;;;;;;;10.43;78.84;95253.31;6166903;28;20458;-68
2023/08/31 02:47:32;;;;;;;0.85;0.40;;;;;;;10.60;77.76;95267.56;6158690;28;20039;-68
2023/08/31 02:50:39;;;;;;;0.63;0.20;;;;;;;10.59;77.43;95260.66;6160439;28;20047;-68
2023/08/31 02:53:42;;;;;;;0.20;0.20;;;;;;;10.63;77.14;95266.47;6160361;28;20051;-68
2023/08/31 02:56:51;;;;;;;0.20;0.20;;;;;;;10.61;76.53;95263.94;6166048;28;20054;-68
2023/08/31 02:59:55;;;;;;;0.20;0.20;;;;;;;10.45;76.95;95261.06;6162497;28;20057;-68
2023/08/31 03:02:57;;;;;;;0.90;0.28;;;;;;;10.61;75.84;95261.31;6179299;28;20085;-68
2023/08/31 03:06:00;;;;;;;0.85;0.30;;;;;;;10.67;75.81;95266.06;6162589;28;20051;-68
2023/08/31 03:09:07;;;;;;;0.70;0.30;;;;;;;10.82;74.11;95258.56;6166691;28;20133;-68
2023/08/31 03:12:11;;;;;;;0.57;0.20;;;;;;;10.96;73.79;95252.03;6163023;28;20130;-69
2023/08/31 03:15:12;;;;;;;0.22;0.20;;;;;;;11.16;73.03;95272.06;6163496;28;20047;-69
2023/08/31 03:18:16;;;;;;;0.57;0.20;;;;;;;11.27;72.84;95251.81;6163644;28;20047;-68
2023/08/31 03:21:20;;;;;;;0.52;0.30;;;;;;;11.46;72.22;95259.63;6164844;28;20050;-68
2023/08/31 03:24:22;;;;;;;0.30;0.30;;;;;;;11.51;72.50;95265.28;6162164;28;20054;-68
2023/08/31 03:27:44;;;;;;;0.45;0.20;;;;;;;11.61;71.59;95266.09;6156112;28;20043;-69
2023/08/31 03:30:57;;;;;;;0.30;0.30;;;;;;;11.68;70.99;95282.97;6162671;28;20503;-68
2023/08/31 03:33:58;;;;;;;0.20;0.20;;;;;;;11.82;70.37;95267.66;6157131;28;20061;-69
2023/08/31 03:37:03;;;;;;;0.30;0.25;;;;;;;12.08;70.21;95278.38;6167815;28;20049;-68
2023/08/31 03:40:06;;;;;;;0.30;0.25;;;;;;;12.50;67.93;95280.47;6160863;28;20050;-68
2023/08/31 03:43:07;;;;;;;0.50;0.30;;;;;;;12.72;68.25;95281.81;6163923;28;20147;-68
2023/08/31 03:46:13;;;;;;;0.30;0.20;;;;;;;13.23;65.40;95274.97;6163458;28;20042;-69
2023/08/31 03:49:19;;;;;;;0.30;0.30;;;;;;;13.44;64.89;95277.25;6163371;28;20046;-68
2023/08/31 03:52:20;;;;;;;0.22;0.22;;;;;;;13.64;64.08;95299.00;6164286;28;20055;-68
2023/08/31 03:55:26;;;;;;;0.98;0.30;;;;;;;13.59;63.33;95290.75;6165091;28;20066;-68
2023/08/31 03:58:29;;;;;;;1.30;0.63;;;;;;;13.16;65.21;95285.31;6161368;28;20047;-68
2023/08/31 04:01:37;;;;;;;0.40;0.35;;;;;;;13.15;65.83;95286.28;6167852;28;20402;-68
2023/08/31 04:04:44;;;;;;;0.40;0.40;;;;;;;13.29;65.48;95290.22;6169004;28;20087;-68
2023/08/31 04:07:48;;;;;;;0.20;0.20;;;;;;;13.36;65.38;95291.25;6166727;28;20039;-68
2023/08/31 04:10:54;;;;;;;0.35;0.22;;;;;;;13.23;64.73;95285.53;6163747;28;20046;-68
2023/08/31 04:13:55;;;;;;;0.20;0.20;;;;;;;13.28;65.08;95298.31;6168610;28;20537;-68
2023/08/31 04:16:59;;;;;;;0.30;0.25;;;;;;;13.16;65.36;95302.97;6165181;28;20094;-68
2023/08/31 04:20:05;;;;;;;0.63;0.40;;;;;;;13.01;65.71;95298.22;6172360;28;20054;-68
2023/08/31 04:23:09;;;;;;;5.57;2.38;;;;;;;12.87;66.07;95309.31;6171546;28;20501;-67
2023/08/31 04:26:17;;;;;;;0.30;0.30;;;;;;;12.72;66.43;95309.03;6168834;28;20054;-70
2023/08/31 04:29:20;;;;;;;0.30;0.30;;;;;;;12.68;66.43;95312.13;6167892;28;20047;-69
2023/08/31 04:32:25;;;;;;;0.30;0.30;;;;;;;12.38;67.98;95313.31;6165819;28;20521;-69
2023/08/31 04:35:27;;;;;;;0.30;0.30;;;;;;;12.17;68.84;95308.28;6165504;28;20066;-68
2023/08/31 04:38:34;;;;;;;0.20;0.20;;;;;;;12.03;69.85;95313.09;6166339;28;20082;-68
2023/08/31 04:41:41;;;;;;;0.45;0.17;;;;;;;12.26;69.68;95323.25;6162649;28;20057;-69
2023/08/31 04:44:47;;;;;;;0.55;0.32;;;;;;;12.57;69.09;95321.94;6167951;28;20529;-68
2023/08/31 04:47:51;;;;;;;0.47;0.40;;;;;;;12.74;68.22;95316.81;6165980;28;20145;-69
2023/08/31 04:50:59;;;;;;;0.30;0.30;;;;;;;12.88;67.94;95318.94;6170090;28;20050;-68
2023/08/31 04:54:02;;;;;;;0.22;0.20;;;;;;;12.99;67.60;95326.63;6166130;28;20050;-67
2023/08/31 04:57:04;;;;;;;0.38;0.30;;;;;;;13.03;67.06;95332.41;6168041;28;20062;-68
2023/08/31 05:00:11;;;;;;;0.22;0.20;;;;;;;13.35;65.73;95315.19;6164974;28;20031;-68
2023/08/31 05:03:19;;;;;;;0.60;0.52;;;;;;;13.95;63.88;95323.13;6167741;28;20047;-69
2023/08/31 05:06:24;;;;;;;0.15;0.10;;;;;;;14.44;62.63;95325.16;6165558;28;20050;-73
2023/08/31 05:09:34;;;;;;;0.10;0.10;;;;;;;15.02;60.68;95322.44;6163727;28;20050;-73
2023/08/31 05:12:36;;;;;;;0.35;0.17;;;;;;;15.72;58.80;95334.38;6165329;28;20434;-76
2023/08/31 05:15:40;;;;;;;0.15;0.15;;;;;;;16.16;57.16;95331.25;6162680;28;20051;-73
2023/08/31 05:18:44;;;;;;;1.10;0.43;;;;;;;16.39;55.74;95344.63;6167642;28;20050;-72
2023/08/31 05:21:46;;;;;;;2.60;0.30;;;;;;;16.34;55.51;95346.94;6163629;28;20047;-74
2023/08/31 05:24:54;;;;;;;1.35;0.52;;;;;;;16.29;53.75;95293.56;6165795;28;20039;-73
2023/08/31 05:27:58;;;;;;;0.50;0.30;;;;;;;16.64;52.28;95350.59;6163087;28;20057;-73
2023/08/31 05:31:03;;;;;;;0.30;0.10;;;;;;;16.54;52.08;95350.00;6161867;28;20047;-74
2023/08/31 05:34:10;;;;;;;0.47;0.20;;;;;;;16.66;52.09;95358.41;6165314;28;20050;-75
2023/08/31 05:37:16;;;;;;;0.77;0.20;;;;;;;16.82;51.79;95353.06;6169179;28;20042;-75
2023/08/31 05:40:23;;;;;;;0.25;0.10;;;;;;;18.14;49.68;95358.94;6163071;28;20054;-74
2023/08/31 05:43:30;;;;;;;1.20;0.30;;;;;;;22.05;41.16;95359.97;6166992;28;20054;-71
2023/08/31 05:46:38;;;;;;;0.10;0.10;;;;;;;22.70;38.53;95351.16;6159984;28;20191;-73
2023/08/31 05:49:47;;;;;;;0.17;0.10;;;;;;;24.72;35.31;95351.16;6164861;28;20074;-72
2023/08/31 05:52:51;;;;;;;0.00;0.00;;;;;;;26.33;32.79;95370.97;6167863;28;20531;-72
2023/08/31 05:56:03;;;;;;;2.97;0.20;;;;;;;26.28;31.98;95346.59;6163615;28;20058;-73
2023/08/31 05:59:07;;;;;;;0.20;0.00;;;;;;;25.08;33.17;95351.09;6163841;28;20051;-68
2023/08/31 06:02:09;;;;;;;0.65;0.13;;;;;;;23.86;34.34;95360.84;6158703;28;20054;-70
2023/08/31 06:05:16;;;;;;;0.10;0.10;;;;;;;22.39;36.02;95366.94;6168836;28;20097;-71
2023/08/31 06:08:20;;;;;;;0.40;0.10;;;;;;;20.41;39.54;95378.88;6168118;28;20082;-76
2023/08/31 06:11:22;;;;;;;0.20;0.20;;;;;;;19.10;42.31;95370.38;6160183;28;20058;-72
2023/08/31 06:14:26;;;;;;;0.20;0.20;;;;;;;18.14;44.24;95350.94;6169720;28;20105;-72
2023/08/31 06:17:30;;;;;;;0.65;0.20;;;;;;;17.88;45.93;95370.84;6177231;28;20038;-71
2023/08/31 06:20:31;;;;;;;0.17;0.10;;;;;;;18.14;45.24;95385.53;6173016;28;20055;-65
2023/08/31 06:23:36;;;;;;;1.38;0.20;;;;;;;18.31;45.27;95381.69;6165924;28;20051;-66
2023/08/31 06:26:37;;;;;;;0.52;0.25;;;;;;;18.07;46.03;95385.47;6168120;28;20632;-66
2023/08/31 06:29:41;;;;;;;1.17;0.30;;;;;;;17.46;47.15;95385.47;6161979;28;20047;-68
2023/08/31 06:32:50;;;;;;;0.10;0.08;;;;;;;16.82;48.50;95387.59;6164113;28;20063;-66
2023/08/31 06:35:54;;;;;;;0.75;0.32;;;;;;;16.29;50.01;95378.47;6172056;28;20488;-65
2023/08/31 06:38:58;;;;;;;1.02;0.50;;;;;;;16.11;50.87;95384.84;6160843;28;20435;-65
2023/08/31 06:42:03;;;;;;;0.63;0.30;;;;;;;16.53;50.02;95391.69;6168805;28;20039;-66
2023/08/31 06:45:08;;;;;;;0.30;0.30;;;;;;;16.90;49.10;95387.53;6161238;28;20047;-68
2023/08/31 06:48:09;;;;;;;0.38;0.20;;;;;;;17.10;48.27;95397.69;6165289;28;20152;-69
2023/08/31 06:51:11;;;;;;;2.00;0.10;;;;;;;17.14;48.64;95385.72;6166711;28;20166;-69
2023/08/31 06:54:12;;;;;;;0.75;0.10;;;;;;;17.08;48.56;95399.72;6166953;28;20061;-64
2023/08/31 06:57:16;;;;;;;0.10;0.05;;;;;;;16.52;49.77;95395.31;6163767;28;20047;-68
2023/08/31 07:00:18;;;;;;;0.10;0.10;;;;;;;16.12;51.00;95398.94;6168802;28;20065;-67
2023/08/31 07:03:24;;;;;;;1.85;0.47;;;;;;;16.00;51.64;95411.72;6162475;28;20039;-63
2023/08/31 07:06:25;;;;;;;0.40;0.30;;;;;;;16.08;51.24;95403.75;6165856;28;20047;-64
2023/08/31 07:09:29;;;;;;;0.32;0.20;;;;;;;16.30;50.67;95391.56;6163167;28;20057;-63
2023/08/31 07:12:31;;;;;;;0.50;0.40;;;;;;;16.56;50.64;95401.94;6161964;28;20081;-64
2023/08/31 07:15:33;;;;;;;1.02;0.20;;;;;;;16.96;49.70;95401.97;6159878;28;20141;-63
2023/08/31 07:18:37;;;;;;;1.77;1.20;;;;;;;18.60;46.55;95412.00;6164073;28;20134;-70
2023/08/31 07:21:44;;;;;;;0.20;0.10;;;;;;;20.97;41.26;95410.00;6162531;28;20058;-67
2023/08/31 07:24:50;;;;;;;0.43;0.10;;;;;;;23.75;36.44;95422.31;6163062;28;20038;-67
2023/08/31 07:27:55;;;;;;;0.20;0.10;;;;;;;27.06;32.12;95430.84;6165511;28;20047;-66
2023/08/31 07:31:04;;;;;;;0.00;0.00;;;;;;;29.62;27.50;95433.16;6162915;28;20077;-66
2023/08/31 07:34:05;;;;;;;0.50;0.15;;;;;;;30.64;26.06;95433.28;6160923;28;20058;-67
2023/08/31 07:37:09;;;;;;;0.68;0.10;;;;;;;31.19;24.64;95440.13;6165669;28;20072;-71
2023/08/31 07:40:14;;;;;;;0.03;0.00;;;;;;;28.18;27.75;95435.72;6160731;28;20035;-67
2023/08/31 07:43:18;;;;;;;0.32;0.00;;;;;;;26.83;29.80;95440.63;6161514;28;20047;-65
2023/08/31 07:46:24;;;;;;;0.10;0.10;;;;;;;26.12;30.60;95442.44;6159214;28;20051;-68
2023/08/31 07:49:28;;;;;;;0.43;0.10;;;;;;;25.97;30.77;95445.59;6161183;28;20043;-67
2023/08/31 07:52:32;;;;;;;0.10;0.00;;;;;;;25.04;31.95;95460.22;6165979;28;20125;-69
2023/08/31 07:55:36;;;;;;;1.35;0.28;;;;;;;23.46;34.25;95436.28;6164242;28;20503;-68
2023/08/31 07:58:37;;;;;;;0.20;0.20;;;;;;;25.13;32.08;95439.22;6161360;28;20039;-71
2023/08/31 08:01:44;;;;;;;0.20;0.10;;;;;;;28.83;27.73;95447.03;6160214;28;20043;-68
2023/08/31 08:04:48;;;;;;;0.20;0.10;;;;;;;29.49;26.28;95469.56;6158342;28;20046;-67
2023/08/31 08:07:58;;;;;;;0.82;0.17;;;;;;;28.54;26.97;95463.38;6158802;28;20534;-67
2023/08/31 08:11:04;;;;;;;0.73;0.15;;;;;;;27.71;27.72;95465.69;6160315;28;20043;-61
2023/08/31 08:14:08;;;;;;;0.45;0.20;;;;;;;25.93;30.52;95463.28;6165715;28;20075;-69
2023/08/31 08:17:11;;;;;;;0.00;0.00;;;;;;;25.47;30.59;95469.28;6161902;28;20043;-68
2023/08/31 08:20:13;;;;;;;0.32;0.22;;;;;;;25.45;31.17;95460.59;6163854;28;20047;-66
2023/08/31 08:23:19;;;;;;;0.73;0.30;;;;;;;28.33;27.92;95466.78;6167285;28;20499;-66
2023/08/31 08:26:23;;;;;;;0.13;0.10;;;;;;;29.70;25.80;95480.72;6160963;28;20043;-67
2023/08/31 08:29:29;;;;;;;0.73;0.20;;;;;;;27.18;28.54;95485.69;6159928;28;20043;-65
2023/08/31 08:32:30;;;;;;;0.55;0.10;;;;;;;24.60;32.41;95467.53;6160060;28;21911;-69
2023/08/31 08:35:33;;;;;;;1.10;0.20;;;;;;;23.25;34.76;95459.72;6165059;28;20061;-64
2023/08/31 08:38:39;;;;;;;0.57;0.32;;;;;;;22.80;35.42;95480.25;6162638;28;20125;-63
2023/08/31 08:41:44;;;;;;;0.20;0.20;;;;;;;23.07;35.21;95492.59;6163389;28;20174;-63
2023/08/31 08:44:47;;;;;;;0.68;0.35;;;;;;;25.58;31.54;95497.31;6162048;28;20043;-64
2023/08/31 08:47:51;;;;;;;0.20;0.20;;;;;;;28.52;27.48;95500.69;6161462;28;20042;-66
2023/08/31 08:51:01;;;;;;;0.65;0.40;;;;;;;29.40;26.30;95495.47;6162656;28;20046;-64
2023/08/31 08:54:05;;;;;;;0.40;0.30;;;;;;;28.45;27.17;95500.03;6166467;28;20503;-67
2023/08/31 08:57:13;;;;;;;0.47;0.20;;;;;;;26.81;28.76;95509.41;6167507;28;20043;-68
2023/08/31 09:00:17;;;;;;;0.30;0.20;;;;;;;25.37;30.61;95490.56;6166788;28;20078;-67
2023/08/31 09:03:18;;;;;;;0.60;0.57;;;;;;;24.76;31.86;95501.09;6171546;28;20047;-67
2023/08/31 09:06:22;;;;;;;0.30;0.30;;;;;;;24.00;33.32;95512.84;6164726;28;20055;-68
2023/08/31 09:09:26;;;;;;;0.85;0.50;;;;;;;23.77;34.05;95507.19;6166935;28;20050;-67
2023/08/31 09:12:36;;;;;;;0.60;0.28;;;;;;;24.58;32.97;95504.56;6161673;28;20043;-67
2023/08/31 09:15:45;;;;;;;0.52;0.38;;;;;;;26.57;29.84;95516.66;6159949;28;20069;-66
2023/08/31 09:18:49;;;;;;;1.13;0.50;;;;;;;26.46;30.06;95509.34;6160797;28;20070;-67
2023/08/31 09:21:52;;;;;;;0.40;0.38;;;;;;;25.83;30.87;95524.97;6157075;28;20050;-67
2023/08/31 09:24:57;;;;;;;0.90;0.30;;;;;;;26.36;29.99;95532.31;6160345;28;20050;-67
2023/08/31 09:27:59;;;;;;;0.40;0.25;;;;;;;27.21;29.10;95538.41;6160062;28;20050;-66
2023/08/31 09:31:08;;;;;;;0.43;0.30;;;;;;;26.18;29.97;95526.97;6684170;23;20670;-68
2023/08/31 09:34:12;;;;;;;0.20;0.20;;;;;;;24.14;32.64;95517.06;6187942;28;20042;-68
2023/08/31 09:37:16;;;;;;;0.50;0.35;;;;;;;22.70;35.08;95526.25;6191830;28;20108;-65
2023/08/31 09:40:20;;;;;;;0.95;0.20;;;;;;;21.48;37.35;95525.44;6197853;28;20042;-68
2023/08/31 09:43:23;;;;;;;0.40;0.20;;;;;;;20.44;39.69;95538.78;6185508;28;20051;-72
2023/08/31 09:46:27;;;;;;;0.65;0.10;;;;;;;19.28;41.60;95538.00;6192129;28;20596;-67
2023/08/31 09:49:32;;;;;;;0.25;0.20;;;;;;;18.58;43.39;95520.59;6184004;28;20034;-72
2023/08/31 09:52:37;;;;;;;2.80;0.30;;;;;;;18.41;44.00;95530.56;6189269;28;20069;-67
2023/08/31 09:55:43;;;;;;;0.65;0.40;;;;;;;18.44;44.27;95540.84;6191477;28;20046;-67
2023/08/31 09:58:49;;;;;;;0.30;0.20;;;;;;;18.19;44.84;95537.56;6193594;28;20054;-66
2023/08/31 10:01:56;;;;;;;0.60;0.40;;;;;;;17.92;45.40;95537.13;6193432;28;20050;-66
2023/08/31 10:04:59;;;;;;;0.52;0.30;;;;;;;17.75;45.82;95535.56;6190844;28;20065;-67
2023/08/31 10:08:01;;;;;;;0.57;0.57;;;;;;;17.60;46.00;95524.84;6194730;28;20153;-67
2023/08/31 10:11:07;;;;;;;0.68;0.47;;;;;;;17.32;46.95;95534.31;6195458;28;20046;-67
2023/08/31 10:14:16;;;;;;;0.70;0.45;;;;;;;17.05;47.46;95542.56;6196025;28;20437;-67
2023/08/31 10:17:17;;;;;;;1.02;0.60;;;;;;;16.80;48.40;95546.31;6195086;28;20042;-66
2023/08/31 10:20:19;;;;;;;0.63;0.40;;;;;;;16.58;49.38;95559.25;6194979;28;20049;-66
2023/08/31 10:23:22;;;;;;;0.30;0.30;;;;;;;16.47;49.53;95546.31;6195907;28;20046;-67
2023/08/31 10:26:30;;;;;;;0.60;0.50;;;;;;;16.34;50.08;95560.13;6190046;28;20034;-66
2023/08/31 10:29:35;;;;;;;0.80;0.52;;;;;;;16.44;50.28;95559.94;6195566;28;20042;-66
2023/08/31 10:32:39;;;;;;;0.52;0.30;;;;;;;16.60;49.97;95567.06;6212447;28;20061;-68
2023/08/31 10:35:52;;;;;;;1.25;0.60;;;;;;;16.71;49.91;95573.84;6219121;28;20651;-65
2023/08/31 10:39:00;;;;;;;2.65;0.60;;;;;;;16.76;50.05;95571.53;6220185;28;20045;-66
2023/08/31 10:42:04;;;;;;;1.02;0.30;;;;;;;16.90;49.40;95583.28;6219632;28;20049;-67
2023/08/31 10:45:06;;;;;;;0.57;0.50;;;;;;;17.39;48.00;95578.66;6214654;28;20053;-66
2023/08/31 10:48:08;;;;;;;2.33;1.30;;;;;;;17.42;47.91;95578.28;6218803;28;20076;-65
2023/08/31 10:51:21;;;;;;;0.50;0.50;;;;;;;17.10;48.53;95589.03;6218413;28;20485;-67
2023/08/31 10:54:35;;;;;;;1.40;0.50;;;;;;;16.71;49.24;95598.59;6211476;28;20424;-67
2023/08/31 10:57:36;;;;;;;0.55;0.50;;;;;;;16.12;50.57;95582.03;6218090;28;20034;-66
2023/08/31 11:00:56;;;;;;;0.43;0.40;;;;;;;15.82;51.73;95597.56;6218648;28;20493;-66
2023/08/31 11:04:00;;;;;;;0.60;0.50;;;;;;;15.55;52.45;95605.78;6213247;28;20125;-66
2023/08/31 11:07:18;;;;;;;0.50;0.50;;;;;;;15.41;52.93;95607.22;6217179;28;20041;-67
2023/08/31 11:10:27;;;;;;;1.40;0.47;;;;;;;15.29;53.17;95592.59;6212093;28;20038;-67
2023/08/31 11:13:33;;;;;;;1.27;0.70;;;;;;;15.18;53.74;95597.19;6215216;28;20042;-67
2023/08/31 11:16:38;;;;;;;0.60;0.43;;;;;;;15.02;54.72;95619.13;6216470;28;20111;-66
2023/08/31 11:19:47;;;;;;;0.43;0.40;;;;;;;14.86;56.74;95626.16;6216087;28;20144;-65
2023/08/31 11:22:55;;;;;;;0.70;0.63;;;;;;;14.47;58.53;95618.59;6216877;28;20038;-65
2023/08/31 11:25:58;;;;;;;0.60;0.60;;;;;;;13.96;61.38;95625.44;6216843;28;20499;-66
2023/08/31 11:29:08;;;;;;;1.58;0.63;;;;;;;13.68;62.61;95628.94;6217998;28;20489;-66
2023/08/31 11:32:09;;;;;;;1.45;0.50;;;;;;;13.51;64.08;95628.94;6209118;28;20558;-66
2023/08/31 11:35:13;;;;;;;0.95;0.70;;;;;;;13.37;64.88;95636.38;6217616;28;20119;-66
2023/08/31 11:38:14;;;;;;;;;;;;;;;13.28;64.75;95636.44;6217992;28;20133;-66
2023/08/31 11:41:15;;;;;;;0.80;0.80;;;;;;;13.10;66.57;95638.94;6200899;28;20495;-66
2023/08/31 11:44:17;;;;;;;1.00;0.90;;;;;;;12.95;67.71;95651.81;6216391;28;20057;-66
2023/08/31 11:47:24;;;;;;;1.13;0.90;;;;;;;12.75;68.70;95648.38;6216293;28;20045;-66
2023/08/31 11:50:29;;;;;;;1.17;1.08;;;;;;;12.65;69.38;95661.59;6214706;28;20092;-66
2023/08/31 11:53:33;;;;;;;1.70;0.98;;;;;;;12.57;70.53;95653.56;6217120;28;20037;-67
2023/08/31 11:56:48;;;;;;;2.53;1.50;;;;;;;12.43;71.48;95651.38;6214976;28;20041;-67
2023/08/31 11:59:55;;;;;;;3.28;1.40;;;;;;;12.29;71.76;95655.25;6214065;28;20050;-67
2023/08/31 12:03:04;;;;;;;1.63;1.52;;;;;;;12.09;72.43;95643.88;6217228;28;20042;-68
2023/08/31 12:06:11;;;;;;;1.98;1.30;;;;;;;11.98;73.25;95647.50;6211817;28;20033;-68
2023/08/31 12:09:14;;;;;;;1.50;1.40;;;;;;;11.76;74.01;95616.09;6216350;28;20522;-68
2023/08/31 12:12:21;;;;;;;1.83;1.50;;;;;;;11.97;74.30;95651.06;6221776;28;20164;-68
2023/08/31 12:15:33;;;;;;;1.58;1.48;;;;;;;12.01;74.26;95652.47;6218792;28;20045;-68
2023/08/31 12:18:37;;;;;;;3.42;2.05;;;;;;;11.96;74.52;95644.16;6212542;28;20057;-68
2023/08/31 12:21:39;;;;;;;2.13;1.85;;;;;;;11.97;74.64;95656.34;6220667;28;20042;-68
2023/08/31 12:24:45;;;;;;;2.35;2.00;;;;;;;11.91;74.90;95641.09;6217988;28;20120;-67
2023/08/31 12:27:47;;;;;;;4.97;3.30;;;;;;;11.94;74.79;95643.44;6218433;28;20489;-67
2023/08/31 12:30:56;;;;;;;5.32;4.05;;;;;;;11.95;74.78;95645.13;6220693;28;20042;-67
2023/08/31 12:34:04;;;;;;;3.90;3.50;;;;;;;12.00;74.83;95642.91;6216440;28;20448;-68
2023/08/31 12:37:08;;;;;;;5.60;3.45;;;;;;;11.80;75.18;95612.19;6217605;28;20057;-67
2023/08/31 12:40:15;;;;;;;6.00;3.10;;;;;;;11.99;75.47;95629.88;6221599;28;20076;-67
2023/08/31 12:43:16;;;;;;;3.58;2.65;;;;;;;11.89;75.72;95620.16;6220239;28;20133;-68
2023/08/31 12:46:20;;;;;;;3.78;2.83;;;;;;;11.80;76.17;95628.00;6204970;28;20060;-67
2023/08/31 12:49:26;;;;;;;4.93;2.47;;;;;;;11.71;76.51;95623.56;6221274;28;20033;-67
2023/08/31 12:52:33;;;;;;;4.60;3.53;;;;;;;11.68;76.76;95624.66;6217478;28;20046;-68
2023/08/31 12:55:34;;;;;;;3.95;3.28;;;;;;;11.64;77.10;95629.38;6220741;28;20412;-68
2023/08/31 12:58:35;;;;;;;3.97;3.50;;;;;;;11.65;77.19;95619.69;6219661;28;20651;-68
2023/08/31 13:01:37;;;;;;;4.03;3.33;;;;;;;11.67;77.14;95617.75;6217175;28;20046;-68
2023/08/31 13:04:41;;;;;;;3.83;3.30;;;;;;;11.63;77.12;95606.66;6216012;28;20137;-68
2023/08/31 13:07:42;;;;;;;3.92;3.53;;;;;;;11.62;77.22;95615.50;6219420;28;20037;-67
2023/08/31 13:10:51;;;;;;;5.20;3.00;;;;;;;11.58;77.68;95603.59;6212774;28;20049;-71
2023/08/31 13:13:57;;;;;;;3.33;2.75;;;;;;;11.55;77.67;95603.88;6220448;28;20045;-70
2023/08/31 13:16:59;;;;;;;3.20;2.85;;;;;;;11.56;78.08;95600.25;6220899;28;20136;-69
2023/08/31 13:20:04;;;;;;;4.55;2.75;;;;;;;11.60;77.76;95593.72;6212342;28;20819;-69
2023/08/31 13:23:06;;;;;;;3.60;2.90;;;;;;;11.48;78.44;95596.63;6215697;28;20076;-70
2023/08/31 13:26:10;;;;;;;3.65;2.75;;;;;;;11.56;78.25;95587.09;6216309;28;20046;-69
2023/08/31 13:29:11;;;;;;;3.78;3.38;;;;;;;11.50;78.45;95585.00;6193711;28;20038;-70
2023/08/31 13:32:20;;;;;;;3.92;2.40;;;;;;;11.44;78.72;95582.91;6210695;28;20050;-72
2023/08/31 13:35:24;;;;;;;2.75;2.00;;;;;;;11.58;77.97;95581.69;6210536;28;20042;-70
2023/08/31 13:38:30;;;;;;;2.50;2.03;;;;;;;11.49;78.13;95575.41;6213812;28;20042;-71
2023/08/31 13:41:36;;;;;;;3.78;2.55;;;;;;;11.39;78.22;95574.59;6213081;28;20041;-70
2023/08/31 13:44:48;;;;;;;3.45;2.92;;;;;;;11.31;79.15;95570.00;6214264;28;20473;-71
2023/08/31 13:47:52;;;;;;;2.63;2.28;;;;;;;11.24;79.34;95561.81;6215032;28;20505;-71
2023/08/31 13:51:00;;;;;;;2.38;2.17;;;;;;;11.26;79.24;95566.09;6212429;28;20037;-71
2023/08/31 13:54:03;;;;;;;2.45;1.98;;;;;;;11.33;78.97;95567.25;6213928;28;20416;-70
2023/08/31 13:57:05;;;;;;;1.92;1.77;;;;;;;11.29;78.98;95557.94;6216747;28;20073;-71
2023/08/31 14:00:09;;;;;;;3.15;2.10;;;;;;;11.26;79.63;95550.31;6212373;28;20060;-71
2023/08/31 14:03:16;;;;;;;3.92;1.73;;;;;;;11.22;79.50;95545.31;6212283;28;20159;-71
2023/08/31 14:06:27;;;;;;;1.95;1.48;;;;;;;11.33;79.78;95561.97;6199439;28;20452;-70
2023/08/31 14:09:36;;;;;;;3.75;1.33;;;;;;;11.19;80.24;95561.38;6212613;28;20042;-71
2023/08/31 14:12:39;;;;;;;1.88;1.27;;;;;;;11.20;80.52;95538.50;6215195;28;20037;-71
2023/08/31 14:15:47;;;;;;;3.75;2.85;;;;;;;11.16;80.75;95540.59;6211976;28;20049;-71
2023/08/31 14:18:50;;;;;;;3.10;1.40;;;;;;;11.18;81.00;95543.94;6218775;28;20065;-72
2023/08/31 14:21:55;;;;;;;3.13;1.60;;;;;;;11.22;81.11;95547.94;6211930;28;20648;-75
2023/08/31 14:24:59;;;;;;;4.78;2.30;;;;;;;11.21;81.25;95535.75;6207108;28;20030;-71
2023/08/31 14:28:03;;;;;;;2.28;2.10;;;;;;;11.24;81.47;95530.22;6211206;28;20420;-71
2023/08/31 14:31:07;;;;;;;2.05;1.80;;;;;;;11.21;81.43;95529.66;6210520;28;20049;-70
2023/08/31 14:34:11;;;;;;;4.68;3.03;;;;;;;11.17;82.03;95520.34;6211430;28;20037;-72